createdAt,value
2019-04-30T00:00:39.915Z,97.90
2019-04-30T00:03:11.500Z,97.90
2019-04-30T00:05:40.596Z,98.40
2019-04-30T00:08:09.291Z,98.50
2019-04-30T00:10:41.320Z,98.70
2019-04-30T00:13:10.551Z,98.70
2019-04-30T00:15:39.039Z,98.70
2019-04-30T00:18:07.735Z,99.30
2019-04-30T00:20:38.595Z,98.80
2019-04-30T00:23:07.373Z,98.70
2019-04-30T00:25:36.264Z,98.70
2019-04-30T00:28:08.623Z,98.60
2019-04-30T00:30:39.369Z,98.70
2019-04-30T00:33:06.201Z,98.70
2019-04-30T00:35:35.539Z,98.70
2019-04-30T00:38:05.083Z,98.80
2019-04-30T00:40:35.220Z,98.70
2019-04-30T00:43:09.915Z,99.00
2019-04-30T00:45:39.928Z,99.10
2019-04-30T00:48:09.148Z,99.00
2019-04-30T00:50:37.851Z,98.90
2019-04-30T00:53:12.547Z,98.80
2019-04-30T00:55:40.208Z,98.60
2019-04-30T00:58:07.279Z,98.60
2019-04-30T01:00:37.607Z,98.70
2019-04-30T01:03:10.612Z,98.70
2019-04-30T01:05:39.531Z,98.90
2019-04-30T01:08:10.217Z,98.70
2019-04-30T01:10:38.911Z,98.80
2019-04-30T01:13:11.827Z,99.00
2019-04-30T01:15:39.084Z,99.30
2019-04-30T01:18:09.359Z,99.30
2019-04-30T01:20:38.672Z,99.10
2019-04-30T01:23:11.243Z,98.80
2019-04-30T01:25:43.191Z,99.10
2019-04-30T01:28:10.789Z,99.20
2019-04-30T01:30:39.719Z,99.40
2019-04-30T01:33:09.150Z,99.40
2019-04-30T01:35:38.237Z,99.10
2019-04-30T01:38:11.646Z,99.60
2019-04-30T01:40:59.642Z,99.40
2019-04-30T01:43:33.529Z,99.20
2019-04-30T01:46:03.257Z,99.20
2019-04-30T01:48:29.301Z,98.80
2019-04-30T01:50:58.687Z,98.90
2019-04-30T01:53:28.606Z,98.60
2019-04-30T01:55:59.255Z,98.70
2019-04-30T01:58:30.192Z,99.30
2019-04-30T02:01:03.671Z,98.80
2019-04-30T02:03:32.366Z,99.20
2019-04-30T02:06:01.052Z,99.00
2019-04-30T02:08:29.750Z,99.20
2019-04-30T02:10:59.421Z,99.70
2019-04-30T02:13:31.159Z,99.70
2019-04-30T02:15:59.236Z,99.90
2019-04-30T02:18:29.629Z,99.90
2019-04-30T02:20:59.483Z,99.80
2019-04-30T02:23:29.710Z,99.90
2019-04-30T02:25:59.109Z,99.90
2019-04-30T02:28:29.030Z,99.90
2019-04-30T02:30:59.898Z,99.90
2019-04-30T02:33:30.611Z,99.90
2019-04-30T02:36:06.924Z,99.90
2019-04-30T02:38:39.547Z,99.90
2019-04-30T02:41:09.837Z,99.90
2019-04-30T02:43:40.974Z,99.90
2019-04-30T02:46:12.243Z,99.90
2019-04-30T02:48:42.636Z,99.90
2019-04-30T02:51:13.904Z,99.90
2019-04-30T02:54:00.653Z,99.90
2019-04-30T02:56:30.067Z,99.90
2019-04-30T02:59:00.443Z,99.90
2019-04-30T03:01:30.501Z,99.90
2019-04-30T03:03:59.910Z,99.90
2019-04-30T03:06:30.404Z,99.90
2019-04-30T03:09:01.177Z,99.90
2019-04-30T03:11:30.185Z,99.90
2019-04-30T03:13:59.422Z,99.90
2019-04-30T03:16:35.861Z,99.90
2019-04-30T03:19:09.702Z,99.90
2019-04-30T03:21:41.817Z,99.90
2019-04-30T03:24:11.327Z,99.90
2019-04-30T03:26:40.515Z,99.90
2019-04-30T03:29:11.139Z,99.90
2019-04-30T03:31:44.290Z,99.90
2019-04-30T03:34:16.783Z,99.90
2019-04-30T03:36:40.794Z,99.90
2019-04-30T03:39:10.858Z,99.90
2019-04-30T03:41:41.399Z,99.90
2019-04-30T03:44:24.753Z,99.90
2019-04-30T03:46:40.907Z,99.90
2019-04-30T03:49:12.599Z,99.90
2019-04-30T03:51:40.493Z,99.90
2019-04-30T03:54:10.070Z,99.90
2019-04-30T03:56:39.874Z,99.90
2019-04-30T03:59:10.667Z,99.90
2019-04-30T04:02:02.897Z,99.90
2019-04-30T04:04:33.303Z,99.90
2019-04-30T04:07:20.360Z,99.90
2019-04-30T04:09:50.783Z,99.90
2019-04-30T04:12:26.219Z,99.90
2019-04-30T04:14:55.001Z,99.90
2019-04-30T04:17:23.748Z,99.90
2019-04-30T04:19:52.439Z,99.90
2019-04-30T04:22:21.435Z,99.90
2019-04-30T04:24:50.928Z,99.90
2019-04-30T04:27:19.890Z,99.90
2019-04-30T04:29:51.060Z,99.90
2019-04-30T04:32:20.632Z,99.90
2019-04-30T04:34:50.467Z,99.90
2019-04-30T04:37:20.327Z,99.90
2019-04-30T04:39:50.170Z,99.90
2019-04-30T04:42:19.804Z,99.90
2019-04-30T04:44:50.290Z,99.90
2019-04-30T04:47:19.824Z,99.90
2019-04-30T04:49:53.076Z,99.90
2019-04-30T04:52:21.544Z,99.90
2019-04-30T04:54:50.606Z,99.90
2019-04-30T04:57:22.749Z,99.90
2019-04-30T04:59:50.270Z,99.70
2019-04-30T05:02:39.688Z,99.90
2019-04-30T05:05:09.641Z,99.90
2019-04-30T05:07:39.929Z,99.90
2019-04-30T05:10:09.374Z,99.90
2019-04-30T05:12:39.843Z,99.90
2019-04-30T05:15:09.518Z,99.90
2019-04-30T05:17:39.786Z,99.40
2019-04-30T05:20:10.062Z,99.50
2019-04-30T05:22:39.024Z,99.90
2019-04-30T05:25:08.901Z,99.80
2019-04-30T05:27:39.210Z,99.40
2019-04-30T05:30:09.683Z,99.40
2019-04-30T05:32:39.295Z,99.40
2019-04-30T05:35:09.592Z,98.80
2019-04-30T05:37:38.598Z,98.90
2019-04-30T05:40:09.149Z,99.00
2019-04-30T05:42:38.725Z,99.50
2019-04-30T05:45:09.327Z,99.20
2019-04-30T05:47:38.917Z,98.20
2019-04-30T05:50:08.957Z,98.10
2019-04-30T05:52:39.822Z,97.90
2019-04-30T05:55:08.706Z,98.00
2019-04-30T05:57:40.789Z,98.30
2019-04-30T06:00:10.067Z,98.20
2019-04-30T06:02:40.032Z,97.80
2019-04-30T06:05:09.290Z,97.10
2019-04-30T06:07:39.540Z,97.30
2019-04-30T06:10:16.108Z,96.90
2019-04-30T06:12:46.443Z,96.30
2019-04-30T06:15:25.887Z,94.60
2019-04-30T06:18:00.929Z,93.80
2019-04-30T06:20:25.583Z,93.40
2019-04-30T06:22:55.987Z,94.60
2019-04-30T06:25:32.336Z,93.10
2019-04-30T06:27:55.355Z,93.40
2019-04-30T06:30:25.625Z,93.10
2019-04-30T06:32:54.819Z,93.50
2019-04-30T06:35:23.911Z,93.90
2019-04-30T06:37:52.603Z,95.10
2019-04-30T06:40:21.403Z,95.10
2019-04-30T06:42:50.092Z,97.20
2019-04-30T06:45:19.145Z,95.20
2019-04-30T06:47:49.025Z,95.10
2019-04-30T06:50:19.415Z,95.10
2019-04-30T06:52:56.683Z,95.50
2019-04-30T06:55:19.252Z,95.80
2019-04-30T06:57:49.693Z,96.50
2019-04-30T07:00:19.570Z,97.70
2019-04-30T07:02:49.531Z,97.70
2019-04-30T07:05:18.715Z,97.30
2019-04-30T07:07:57.418Z,98.00
2019-04-30T07:10:21.279Z,98.30
2019-04-30T07:12:51.623Z,99.30
2019-04-30T07:15:20.379Z,98.30
2019-04-30T07:17:49.307Z,98.10
2019-04-30T07:20:19.132Z,98.30
2019-04-30T07:22:52.396Z,98.30
2019-04-30T07:25:19.555Z,99.10
2019-04-30T07:27:50.499Z,99.00
2019-04-30T07:30:19.240Z,97.60
2019-04-30T07:32:48.795Z,96.70
2019-04-30T07:35:19.466Z,97.40
2019-04-30T07:37:49.798Z,96.80
2019-04-30T07:40:19.032Z,97.30
2019-04-30T07:42:49.296Z,97.20
2019-04-30T07:45:19.446Z,96.70
2019-04-30T07:47:49.455Z,96.60
2019-04-30T07:50:21.487Z,97.00
2019-04-30T07:53:01.583Z,97.70
2019-04-30T07:55:19.738Z,97.50
2019-04-30T07:57:50.657Z,97.10
2019-04-30T08:00:19.311Z,97.10
2019-04-30T08:03:05.491Z,97.50
2019-04-30T08:05:36.024Z,98.60
2019-04-30T08:08:17.719Z,97.20
2019-04-30T08:10:35.158Z,97.90
2019-04-30T08:13:10.101Z,96.50
2019-04-30T08:15:34.197Z,95.60
2019-04-30T08:18:05.861Z,97.50
2019-04-30T08:20:33.264Z,97.60
2019-04-30T08:23:13.410Z,96.40
2019-04-30T08:25:32.316Z,96.60
2019-04-30T08:28:01.055Z,98.50
2019-04-30T08:30:30.110Z,96.40
2019-04-30T08:32:59.602Z,99.20
2019-04-30T08:35:29.641Z,98.20
2019-04-30T08:37:59.074Z,98.60
2019-04-30T08:40:29.590Z,98.60
2019-04-30T08:42:59.509Z,99.80
2019-04-30T08:45:31.079Z,99.50
2019-04-30T08:47:59.079Z,98.40
2019-04-30T08:50:29.683Z,99.20
2019-04-30T08:52:59.774Z,98.80
2019-04-30T08:55:30.485Z,99.20
2019-04-30T08:58:09.276Z,99.70
2019-04-30T09:00:29.818Z,99.10
2019-04-30T09:02:59.350Z,98.50
2019-04-30T09:05:35.884Z,98.80
2019-04-30T09:08:06.420Z,98.90
2019-04-30T09:10:35.123Z,99.90
2019-04-30T09:13:03.832Z,97.60
2019-04-30T09:15:32.591Z,97.00
2019-04-30T09:18:06.367Z,97.20
2019-04-30T09:20:31.622Z,98.20
2019-04-30T09:23:00.319Z,98.40
2019-04-30T09:25:29.013Z,97.50
2019-04-30T09:27:58.790Z,97.00
2019-04-30T09:30:29.803Z,97.20
2019-04-30T09:32:59.474Z,96.70
2019-04-30T09:35:31.771Z,96.00
2019-04-30T09:38:01.400Z,94.30
2019-04-30T09:40:32.316Z,93.00
2019-04-30T09:43:00.464Z,90.70
2019-04-30T09:45:29.410Z,87.40
2019-04-30T09:47:59.254Z,86.80
2019-04-30T09:50:29.045Z,84.60
2019-04-30T09:53:00.177Z,81.40
2019-04-30T09:55:29.066Z,78.70
2019-04-30T09:57:58.879Z,82.60
2019-04-30T10:00:29.500Z,83.60
2019-04-30T10:02:59.897Z,82.60
2019-04-30T10:05:29.257Z,82.90
2019-04-30T10:07:59.445Z,85.00
2019-04-30T10:10:29.972Z,78.90
2019-04-30T10:12:59.295Z,68.80
2019-04-30T10:15:42.199Z,59.40
2019-04-30T10:18:10.903Z,58.80
2019-04-30T10:20:44.083Z,59.50
2019-04-30T10:23:12.792Z,56.50
2019-04-30T10:25:41.479Z,53.10
2019-04-30T10:28:10.286Z,53.00
2019-04-30T10:30:39.442Z,50.20
2019-04-30T10:33:10.014Z,49.70
2019-04-30T10:35:38.677Z,48.90
2019-04-30T10:38:09.706Z,48.60
2019-04-30T10:40:39.030Z,46.50
2019-04-30T10:43:08.911Z,46.90
2019-04-30T10:45:38.810Z,45.20
2019-04-30T10:48:08.994Z,46.10
2019-04-30T10:50:40.793Z,47.70
2019-04-30T10:53:09.155Z,45.40
2019-04-30T10:55:38.769Z,43.60
2019-04-30T10:58:07.551Z,40.00
2019-04-30T11:00:41.683Z,39.80
2019-04-30T11:03:19.052Z,40.30
2019-04-30T11:05:41.427Z,41.80
2019-04-30T11:08:10.231Z,42.40
2019-04-30T11:10:39.925Z,38.90
2019-04-30T11:13:08.878Z,39.80
2019-04-30T11:15:39.314Z,40.30
2019-04-30T11:18:08.064Z,41.60
2019-04-30T11:20:36.944Z,39.50
2019-04-30T11:23:14.263Z,39.50
2019-04-30T11:25:37.110Z,37.30
2019-04-30T11:28:06.876Z,41.00
2019-04-30T11:30:36.772Z,41.30
2019-04-30T11:33:06.166Z,43.70
2019-04-30T11:35:35.171Z,44.60
2019-04-30T11:38:04.275Z,42.40
2019-04-30T11:40:37.195Z,44.40
2019-04-30T11:43:03.931Z,46.40
2019-04-30T11:45:47.840Z,46.60
2019-04-30T11:48:16.739Z,43.20
2019-04-30T11:50:45.455Z,46.60
2019-04-30T11:53:24.512Z,46.50
2019-04-30T11:55:44.511Z,45.20
2019-04-30T11:58:21.338Z,46.30
2019-04-30T12:00:45.227Z,44.00
2019-04-30T12:03:13.924Z,44.80
2019-04-30T12:05:42.694Z,43.50
2019-04-30T12:08:16.044Z,44.00
2019-04-30T12:10:46.591Z,46.50
2019-04-30T12:13:22.699Z,49.10
2019-04-30T12:15:51.547Z,47.40
2019-04-30T12:18:20.235Z,48.50
2019-04-30T12:20:48.928Z,46.90
2019-04-30T12:23:19.003Z,45.40
2019-04-30T12:25:49.303Z,44.10
2019-04-30T12:28:19.562Z,43.20
2019-04-30T12:30:49.061Z,46.60
2019-04-30T12:33:19.202Z,47.50
2019-04-30T12:35:51.018Z,47.00
2019-04-30T12:38:19.202Z,47.50
2019-04-30T12:40:48.095Z,46.70
2019-04-30T12:43:16.786Z,47.80
2019-04-30T12:45:45.495Z,47.00
2019-04-30T12:48:20.345Z,48.10
2019-04-30T12:50:53.415Z,47.80
2019-04-30T12:53:23.751Z,48.10
2019-04-30T12:56:02.895Z,46.60
2019-04-30T12:58:31.663Z,47.90
2019-04-30T13:01:00.428Z,47.70
2019-04-30T13:03:30.819Z,47.00
2019-04-30T13:06:01.312Z,47.90
2019-04-30T13:08:30.418Z,47.70
2019-04-30T13:10:59.967Z,48.80
2019-04-30T13:13:31.729Z,48.30
2019-04-30T13:16:00.032Z,47.70
2019-04-30T13:18:29.613Z,47.10
2019-04-30T13:20:58.844Z,46.80
2019-04-30T13:23:29.659Z,43.30
2019-04-30T13:25:58.444Z,44.00
2019-04-30T13:28:46.282Z,42.20
2019-04-30T13:31:15.051Z,40.40
2019-04-30T13:34:00.965Z,41.50
2019-04-30T13:36:27.554Z,39.80
2019-04-30T13:39:03.523Z,39.00
2019-04-30T13:41:45.888Z,41.30
2019-04-30T13:44:14.379Z,40.70
2019-04-30T13:46:43.078Z,40.90
2019-04-30T13:49:11.778Z,40.60
2019-04-30T13:51:42.873Z,41.30
2019-04-30T13:54:10.834Z,43.10
2019-04-30T13:56:39.740Z,44.60
2019-04-30T13:59:08.541Z,43.80
2019-04-30T14:01:39.094Z,45.40
2019-04-30T14:04:15.751Z,45.00
2019-04-30T14:07:02.831Z,43.90
2019-04-30T14:09:33.167Z,43.10
2019-04-30T14:12:01.875Z,43.50
2019-04-30T14:14:30.570Z,46.50
2019-04-30T14:17:01.215Z,45.00
2019-04-30T14:19:29.898Z,47.10
2019-04-30T14:21:59.027Z,46.30
2019-04-30T14:24:27.851Z,45.40
2019-04-30T14:26:56.547Z,44.80
2019-04-30T14:29:25.256Z,46.30
2019-04-30T14:31:54.163Z,44.40
2019-04-30T14:34:22.867Z,46.40
2019-04-30T14:36:51.563Z,48.00
2019-04-30T14:39:20.481Z,47.40
2019-04-30T14:41:51.957Z,47.10
2019-04-30T14:44:31.199Z,46.60
2019-04-30T14:46:59.690Z,45.60
2019-04-30T14:49:42.204Z,45.90
2019-04-30T14:52:11.536Z,45.40
2019-04-30T14:55:18.761Z,46.30
2019-04-30T14:57:55.035Z,46.20
2019-04-30T15:00:43.688Z,49.70
2019-04-30T15:03:20.315Z,48.60
2019-04-30T15:05:51.610Z,49.70
2019-04-30T15:08:19.494Z,50.00
2019-04-30T15:10:48.184Z,50.30
2019-04-30T15:13:16.948Z,47.90
2019-04-30T15:15:45.657Z,48.30
2019-04-30T15:18:14.439Z,48.20
2019-04-30T15:20:43.148Z,49.40
2019-04-30T15:23:22.491Z,51.90
2019-04-30T15:25:51.355Z,48.80
2019-04-30T15:28:20.059Z,50.30
2019-04-30T15:30:48.940Z,51.20
2019-04-30T15:33:38.544Z,51.40
2019-04-30T15:36:09.635Z,51.20
2019-04-30T15:38:55.674Z,51.20
2019-04-30T15:41:24.639Z,51.50
2019-04-30T15:43:53.414Z,50.70
2019-04-30T15:46:22.194Z,52.50
2019-04-30T15:48:50.887Z,52.70
2019-04-30T15:51:19.595Z,53.40
2019-04-30T15:53:48.295Z,53.70
2019-04-30T15:56:16.999Z,53.80
2019-04-30T15:58:59.239Z,52.40
2019-04-30T16:01:29.061Z,52.90
2019-04-30T16:03:57.987Z,52.50
2019-04-30T16:06:28.465Z,52.70
2019-04-30T16:08:58.624Z,54.30
2019-04-30T16:11:31.891Z,52.80
2019-04-30T16:14:18.651Z,52.80
2019-04-30T16:16:49.051Z,54.00
2019-04-30T16:19:18.788Z,54.30
2019-04-30T16:21:47.627Z,53.40
2019-04-30T16:24:18.558Z,54.40
2019-04-30T16:26:50.633Z,54.20
2019-04-30T16:29:17.199Z,54.40
2019-04-30T16:31:45.963Z,54.60
2019-04-30T16:34:14.666Z,55.10
2019-04-30T16:36:43.363Z,55.40
2019-04-30T16:39:12.167Z,56.90
2019-04-30T16:41:40.988Z,57.00
2019-04-30T16:44:09.703Z,55.90
2019-04-30T16:46:39.534Z,58.20
2019-04-30T16:49:10.205Z,58.80
2019-04-30T16:51:38.718Z,59.00
2019-04-30T16:54:08.634Z,58.80
2019-04-30T16:56:38.698Z,59.20
2019-04-30T16:59:09.110Z,60.40
2019-04-30T17:01:38.121Z,60.50
2019-04-30T17:04:19.098Z,59.10
2019-04-30T17:07:05.415Z,59.70
2019-04-30T17:09:35.753Z,62.70
2019-04-30T17:12:08.485Z,64.40
2019-04-30T17:14:38.834Z,69.70
2019-04-30T17:17:07.674Z,74.90
2019-04-30T17:19:36.380Z,76.10
2019-04-30T17:22:05.175Z,76.40
2019-04-30T17:24:33.883Z,76.10
2019-04-30T17:27:02.579Z,78.30
2019-04-30T17:29:31.299Z,81.40
2019-04-30T17:32:00.063Z,80.00
2019-04-30T17:34:28.884Z,82.20
2019-04-30T17:36:59.209Z,82.30
2019-04-30T17:39:28.175Z,82.10
2019-04-30T17:41:56.882Z,84.00
2019-04-30T17:44:25.668Z,86.70
2019-04-30T17:46:54.297Z,86.70
2019-04-30T17:49:22.991Z,89.40
2019-04-30T17:51:51.723Z,90.00
2019-04-30T17:54:20.403Z,91.30
2019-04-30T17:56:49.098Z,92.90
2019-04-30T17:59:17.803Z,94.10
2019-04-30T18:01:49.620Z,94.90
2019-04-30T18:04:18.708Z,95.10
2019-04-30T18:06:48.386Z,96.00
2019-04-30T18:09:19.211Z,97.10
2019-04-30T18:11:49.606Z,96.70
2019-04-30T18:14:18.815Z,97.00
2019-04-30T18:16:48.640Z,96.70
2019-04-30T18:19:19.176Z,96.10
2019-04-30T18:21:59.681Z,97.00
2019-04-30T18:24:39.446Z,97.90
2019-04-30T18:27:16.219Z,99.10
2019-04-30T18:29:46.387Z,99.90
2019-04-30T18:32:15.495Z,99.90
2019-04-30T18:34:44.191Z,99.80
2019-04-30T18:37:12.906Z,99.70
2019-04-30T18:39:41.599Z,99.60
2019-04-30T18:42:11.078Z,99.00
2019-04-30T18:44:39.855Z,97.10
2019-04-30T18:47:09.053Z,96.90
2019-04-30T18:49:39.457Z,96.20
2019-04-30T18:52:09.105Z,95.30
2019-04-30T18:54:39.717Z,94.80
2019-04-30T18:57:08.355Z,93.60
2019-04-30T18:59:37.052Z,94.00
2019-04-30T19:02:07.699Z,93.70
2019-04-30T19:04:38.897Z,93.70
2019-04-30T19:07:11.130Z,94.00
2019-04-30T19:09:41.470Z,95.10
2019-04-30T19:12:19.412Z,96.00
2019-04-30T19:15:06.247Z,96.00
2019-04-30T19:17:52.747Z,96.70
2019-04-30T19:20:23.088Z,96.30
2019-04-30T19:22:51.796Z,97.00
2019-04-30T19:25:20.559Z,97.60
2019-04-30T19:27:49.663Z,97.70
2019-04-30T19:30:19.376Z,97.10
2019-04-30T19:32:49.152Z,97.00
2019-04-30T19:35:18.778Z,97.50
2019-04-30T19:37:48.689Z,98.10
2019-04-30T19:40:18.994Z,98.40
2019-04-30T19:42:50.260Z,98.90
2019-04-30T19:45:18.224Z,99.30
2019-04-30T19:47:48.857Z,99.50
2019-04-30T19:50:19.134Z,99.90
2019-04-30T19:52:47.915Z,99.90
2019-04-30T19:55:20.479Z,99.90
2019-04-30T19:57:48.403Z,99.90
2019-04-30T20:00:17.751Z,99.90
2019-04-30T20:02:48.571Z,99.90
2019-04-30T20:05:16.895Z,99.90
2019-04-30T20:07:45.599Z,99.90
2019-04-30T20:10:14.295Z,99.90
2019-04-30T20:15:29.795Z,99.90
2019-04-30T20:18:00.989Z,99.90
2019-04-30T20:20:29.051Z,99.90
2019-04-30T20:22:57.819Z,99.90
2019-04-30T20:25:26.520Z,99.90
2019-04-30T20:27:55.218Z,99.90
2019-04-30T20:30:23.930Z,99.90
2019-04-30T20:32:52.654Z,99.90
2019-04-30T20:35:21.364Z,99.90
2019-04-30T20:38:09.496Z,99.90
2019-04-30T20:40:43.616Z,99.90
2019-04-30T20:43:10.637Z,99.90
2019-04-30T20:45:39.247Z,99.90
2019-04-30T20:48:08.956Z,99.90
2019-04-30T20:50:37.753Z,99.90
2019-04-30T20:53:08.731Z,99.90
2019-04-30T20:55:40.581Z,99.90
2019-04-30T20:58:09.342Z,99.90
2019-04-30T21:00:37.863Z,99.90
2019-04-30T21:03:06.558Z,99.90
2019-04-30T21:05:35.340Z,99.90
2019-04-30T21:08:04.156Z,99.90
2019-04-30T21:10:32.851Z,99.90
2019-04-30T21:13:01.556Z,99.90
2019-04-30T21:15:30.249Z,99.90
2019-04-30T21:17:59.019Z,99.90
2019-04-30T21:20:28.857Z,99.90
2019-04-30T21:22:59.486Z,99.90
2019-04-30T21:25:29.226Z,99.90
2019-04-30T21:27:59.920Z,99.90
2019-04-30T21:30:28.390Z,99.90
2019-04-30T21:33:04.715Z,99.90
2019-04-30T21:35:37.770Z,99.90
2019-04-30T21:38:06.612Z,99.90
2019-04-30T21:40:36.703Z,99.90
2019-04-30T21:43:05.506Z,99.90
2019-04-30T21:45:34.223Z,99.90
2019-04-30T21:48:02.931Z,99.90
2019-04-30T21:50:31.625Z,99.90
2019-04-30T21:53:00.527Z,99.90
2019-04-30T21:55:29.698Z,99.90
2019-04-30T21:57:59.380Z,99.90
2019-04-30T22:00:36.855Z,99.90
2019-04-30T22:03:09.579Z,99.90
2019-04-30T22:05:37.743Z,99.90
2019-04-30T22:08:06.442Z,99.90
2019-04-30T22:10:35.197Z,99.90
2019-04-30T22:13:03.888Z,99.90
2019-04-30T22:15:32.590Z,99.90
2019-04-30T22:18:01.355Z,99.90
2019-04-30T22:20:30.119Z,99.90
2019-04-30T22:22:58.820Z,99.90
2019-04-30T22:25:29.332Z,99.90
2019-04-30T22:27:57.949Z,99.90
2019-04-30T22:30:26.643Z,99.90
2019-04-30T22:32:55.546Z,99.90
2019-04-30T22:35:28.561Z,99.90
2019-04-30T22:38:01.724Z,99.90
2019-04-30T22:40:31.657Z,99.90
2019-04-30T22:43:00.419Z,99.90
2019-04-30T22:45:30.752Z,99.90
2019-04-30T22:47:59.443Z,99.90
2019-04-30T22:50:28.146Z,99.90
2019-04-30T22:52:56.835Z,99.90
2019-04-30T22:55:25.569Z,99.90
2019-04-30T22:57:54.258Z,99.90
2019-04-30T23:00:24.726Z,99.90
2019-04-30T23:02:57.937Z,99.90
2019-04-30T23:05:26.627Z,99.90
2019-04-30T23:07:55.323Z,99.90
2019-04-30T23:10:24.290Z,99.90
2019-04-30T23:12:53.086Z,99.90
2019-04-30T23:15:22.153Z,99.90
2019-04-30T23:17:51.079Z,99.90
2019-04-30T23:20:19.783Z,99.90
2019-04-30T23:22:48.487Z,99.90
2019-04-30T23:25:17.184Z,99.90
2019-04-30T23:27:45.895Z,99.90
2019-04-30T23:30:14.687Z,99.90
2019-04-30T23:32:43.382Z,99.90
2019-04-30T23:35:12.080Z,99.90
2019-04-30T23:37:40.771Z,99.90
2019-04-30T23:40:21.419Z,99.90
2019-04-30T23:42:50.415Z,99.90
2019-04-30T23:45:19.111Z,99.90
2019-04-30T23:47:47.799Z,99.90
2019-04-30T23:50:16.495Z,99.90
2019-04-30T23:52:45.187Z,99.90
2019-04-30T23:55:14.174Z,99.90
2019-04-30T23:57:42.872Z,99.90
